createdAt,value
2022-07-29T00:00:00.857Z,45.61
2022-07-29T00:02:28.507Z,45.89
2022-07-29T00:04:55.693Z,45.94
2022-07-29T00:07:22.725Z,46.00
2022-07-29T00:09:51.911Z,45.78
2022-07-29T00:12:26.541Z,45.62
2022-07-29T00:14:55.803Z,45.63
2022-07-29T00:17:24.259Z,45.70
2022-07-29T00:19:51.394Z,45.63
2022-07-29T00:22:18.479Z,45.63
2022-07-29T00:24:45.566Z,45.66
2022-07-29T00:27:12.407Z,45.58
2022-07-29T00:29:39.299Z,45.36
2022-07-29T00:32:06.774Z,45.43
2022-07-29T00:34:52.076Z,45.09
2022-07-29T00:37:19.074Z,44.53
2022-07-29T00:39:46.090Z,44.21
2022-07-29T00:42:12.966Z,44.12
2022-07-29T00:44:41.989Z,44.38
2022-07-29T00:47:10.925Z,44.69
2022-07-29T00:49:40.400Z,44.94
2022-07-29T00:52:09.423Z,45.10
2022-07-29T00:54:44.144Z,45.34
2022-07-29T00:57:12.263Z,45.40
2022-07-29T00:59:39.321Z,45.17
2022-07-29T01:02:06.327Z,45.06
2022-07-29T01:04:33.831Z,45.36
2022-07-29T01:07:03.117Z,45.23
2022-07-29T01:09:42.252Z,45.30
2022-07-29T01:12:18.637Z,44.96
2022-07-29T01:14:47.196Z,44.42
2022-07-29T01:17:35.247Z,44.89
2022-07-29T01:20:17.573Z,44.51
2022-07-29T01:23:08.736Z,44.06
2022-07-29T01:25:41.557Z,43.75
2022-07-29T01:28:49.014Z,43.95
2022-07-29T01:31:26.997Z,43.99
2022-07-29T01:34:07.166Z,44.34
2022-07-29T01:36:47.025Z,43.99
2022-07-29T01:39:22.226Z,44.16
2022-07-29T01:42:23.588Z,44.33
2022-07-29T01:45:26.068Z,44.32
2022-07-29T01:48:11.538Z,44.66
2022-07-29T01:51:09.178Z,44.68
2022-07-29T01:53:45.066Z,45.08
2022-07-29T01:56:14.546Z,45.01
2022-07-29T01:58:44.414Z,45.35
2022-07-29T02:01:13.708Z,45.23
2022-07-29T02:03:46.148Z,45.04
2022-07-29T02:06:19.264Z,45.28
2022-07-29T02:08:48.153Z,45.18
2022-07-29T02:11:15.384Z,45.41
2022-07-29T02:13:43.436Z,45.63
2022-07-29T02:16:12.037Z,45.05
2022-07-29T02:18:43.891Z,44.95
2022-07-29T02:21:15.029Z,45.00
2022-07-29T02:23:50.750Z,45.14
2022-07-29T02:26:21.711Z,45.15
2022-07-29T02:28:55.443Z,45.29
2022-07-29T02:31:35.681Z,45.54
2022-07-29T02:34:09.529Z,45.48
2022-07-29T02:36:37.650Z,45.32
2022-07-29T02:39:06.665Z,45.56
2022-07-29T02:41:51.534Z,45.62
2022-07-29T02:44:22.563Z,45.78
2022-07-29T02:47:25.934Z,45.66
2022-07-29T02:50:09.200Z,45.88
2022-07-29T02:52:59.312Z,45.39
2022-07-29T02:55:33.106Z,45.94
2022-07-29T02:58:14.947Z,46.10
2022-07-29T03:00:42.509Z,46.18
2022-07-29T03:03:14.361Z,46.04
2022-07-29T03:05:42.064Z,46.22
2022-07-29T03:08:12.500Z,46.09
2022-07-29T03:10:44.605Z,46.22
2022-07-29T03:13:13.358Z,46.32
2022-07-29T03:15:41.030Z,46.46
2022-07-29T03:18:09.164Z,46.53
2022-07-29T03:20:36.180Z,46.78
2022-07-29T03:23:03.199Z,46.72
2022-07-29T03:25:30.146Z,47.01
2022-07-29T03:27:57.491Z,47.54
2022-07-29T03:30:24.835Z,46.96
2022-07-29T03:32:53.787Z,47.30
2022-07-29T03:35:21.510Z,47.48
2022-07-29T03:37:48.732Z,47.32
2022-07-29T03:40:21.718Z,47.31
2022-07-29T03:42:51.204Z,47.31
2022-07-29T03:45:20.069Z,47.01
2022-07-29T03:47:54.685Z,47.02
2022-07-29T03:50:22.952Z,46.87
2022-07-29T03:52:50.765Z,47.32
2022-07-29T03:55:18.101Z,47.36
2022-07-29T03:57:47.235Z,47.38
2022-07-29T04:00:16.349Z,47.40
2022-07-29T04:02:49.639Z,47.21
2022-07-29T04:05:18.687Z,47.43
2022-07-29T04:07:49.537Z,47.79
2022-07-29T04:10:17.983Z,47.69
2022-07-29T04:12:57.462Z,47.68
2022-07-29T04:15:24.408Z,47.97
2022-07-29T04:17:51.368Z,47.66
2022-07-29T04:20:18.329Z,47.23
2022-07-29T04:22:45.199Z,47.15
2022-07-29T04:25:12.160Z,47.24
2022-07-29T04:27:59.055Z,47.38
2022-07-29T04:30:25.881Z,47.25
2022-07-29T04:32:53.058Z,47.54
2022-07-29T04:35:24.117Z,47.40
2022-07-29T04:37:50.978Z,46.62
2022-07-29T04:40:17.992Z,46.59
2022-07-29T04:42:46.746Z,46.11
2022-07-29T04:45:22.308Z,45.87
2022-07-29T04:47:49.997Z,45.43
2022-07-29T04:50:17.545Z,45.33
2022-07-29T04:52:44.465Z,44.94
2022-07-29T04:55:11.425Z,44.64
2022-07-29T04:57:38.379Z,44.64
2022-07-29T05:00:07.085Z,44.51
2022-07-29T05:02:34.118Z,43.90
2022-07-29T05:05:01.119Z,43.48
2022-07-29T05:07:28.085Z,43.04
2022-07-29T05:09:57.838Z,42.62
2022-07-29T05:12:26.033Z,41.83
2022-07-29T05:14:52.966Z,42.46
2022-07-29T05:17:20.008Z,41.89
2022-07-29T05:19:46.949Z,41.69
2022-07-29T05:22:13.809Z,41.03
2022-07-29T05:24:41.688Z,40.47
2022-07-29T05:27:08.613Z,40.31
2022-07-29T05:29:43.164Z,40.18
2022-07-29T05:32:13.323Z,40.16
2022-07-29T05:34:50.970Z,39.97
2022-07-29T05:37:20.531Z,39.52
2022-07-29T05:39:50.876Z,38.93
2022-07-29T05:42:25.535Z,38.56
2022-07-29T05:44:52.850Z,38.07
2022-07-29T05:47:19.745Z,37.63
2022-07-29T05:49:47.060Z,37.24
2022-07-29T05:52:14.206Z,36.37
2022-07-29T05:54:41.484Z,35.86
2022-07-29T05:57:08.773Z,35.42
2022-07-29T05:59:39.491Z,34.57
2022-07-29T06:02:06.505Z,34.50
2022-07-29T06:04:34.570Z,33.16
2022-07-29T06:07:02.583Z,32.46
2022-07-29T06:09:29.783Z,31.65
2022-07-29T06:11:57.012Z,31.08
2022-07-29T06:14:23.847Z,30.62
2022-07-29T06:16:50.909Z,29.76
2022-07-29T06:19:18.045Z,29.13
2022-07-29T06:21:48.821Z,28.16
2022-07-29T06:24:17.008Z,27.06
2022-07-29T06:26:44.321Z,26.50
2022-07-29T06:29:12.743Z,25.81
2022-07-29T06:31:40.202Z,24.98
2022-07-29T06:34:07.559Z,24.21
2022-07-29T06:36:37.725Z,23.61
2022-07-29T06:39:09.294Z,24.36
2022-07-29T06:41:38.443Z,24.41
2022-07-29T06:44:05.685Z,24.45
2022-07-29T06:46:33.168Z,25.39
2022-07-29T06:49:02.402Z,25.52
2022-07-29T06:51:29.835Z,25.92
2022-07-29T06:54:02.678Z,25.89
2022-07-29T06:56:39.326Z,24.54
2022-07-29T06:59:08.824Z,24.02
2022-07-29T07:01:38.221Z,23.76
2022-07-29T07:04:05.579Z,22.77
2022-07-29T07:06:32.694Z,22.75
2022-07-29T07:08:59.625Z,24.30
2022-07-29T07:11:26.563Z,25.37
2022-07-29T07:13:53.529Z,26.20
2022-07-29T07:16:20.527Z,27.31
2022-07-29T07:18:47.498Z,28.75
2022-07-29T07:21:19.057Z,28.78
2022-07-29T07:23:47.173Z,28.39
2022-07-29T07:26:14.084Z,28.63
2022-07-29T07:28:41.082Z,26.20
2022-07-29T07:31:08.082Z,23.47
2022-07-29T07:33:34.953Z,23.72
2022-07-29T07:36:01.847Z,24.36
2022-07-29T07:38:28.879Z,26.20
2022-07-29T07:40:55.782Z,26.55
2022-07-29T07:43:23.635Z,29.11
2022-07-29T07:45:50.722Z,30.00
2022-07-29T07:48:17.720Z,28.79
2022-07-29T07:50:44.722Z,27.44
2022-07-29T07:53:12.036Z,28.67
2022-07-29T07:58:29.580Z,30.85
2022-07-29T08:00:56.536Z,30.43
2022-07-29T08:03:23.461Z,32.77
2022-07-29T08:05:52.641Z,34.02
2022-07-29T08:08:19.730Z,35.13
2022-07-29T08:10:54.748Z,35.29
2022-07-29T08:13:26.245Z,36.45
2022-07-29T08:15:58.902Z,35.55
2022-07-29T08:18:31.661Z,31.93
2022-07-29T08:20:59.490Z,30.77
2022-07-29T08:23:32.944Z,30.64
2022-07-29T08:26:15.140Z,31.74
2022-07-29T08:28:49.536Z,33.11
2022-07-29T08:31:17.278Z,28.08
2022-07-29T08:33:44.292Z,24.64
2022-07-29T08:36:11.532Z,24.79
2022-07-29T08:38:38.395Z,25.73
2022-07-29T08:41:05.595Z,24.61
2022-07-29T08:43:33.045Z,24.25
2022-07-29T08:46:00.189Z,25.37
2022-07-29T08:48:27.106Z,28.89
2022-07-29T08:50:57.046Z,31.42
2022-07-29T08:53:28.103Z,29.69
2022-07-29T08:55:56.023Z,29.72
2022-07-29T08:58:25.615Z,30.10
2022-07-29T09:00:57.874Z,31.59
2022-07-29T09:03:26.837Z,32.76
2022-07-29T09:05:54.172Z,32.89
2022-07-29T09:08:21.370Z,31.85
2022-07-29T09:10:48.921Z,28.72
2022-07-29T09:13:15.822Z,23.08
2022-07-29T09:15:42.667Z,18.71
2022-07-29T09:18:26.746Z,17.21
2022-07-29T09:21:15.366Z,15.30
2022-07-29T09:23:43.758Z,13.76
2022-07-29T09:26:10.652Z,13.68
2022-07-29T09:28:43.422Z,12.84
2022-07-29T09:31:10.553Z,12.78
2022-07-29T09:33:40.253Z,12.18
2022-07-29T09:36:12.375Z,12.47
2022-07-29T09:38:39.294Z,12.71
2022-07-29T09:41:08.978Z,12.96
2022-07-29T09:43:35.938Z,12.72
2022-07-29T09:46:15.806Z,11.83
2022-07-29T09:48:43.016Z,11.54
2022-07-29T09:51:25.410Z,12.23
2022-07-29T09:53:55.600Z,12.04
2022-07-29T09:56:43.313Z,12.34
2022-07-29T09:59:12.290Z,13.81
2022-07-29T10:01:39.152Z,15.33
2022-07-29T10:04:06.113Z,14.62
2022-07-29T10:06:33.002Z,13.68
2022-07-29T10:09:10.443Z,13.35
2022-07-29T10:11:49.860Z,15.06
2022-07-29T10:14:17.462Z,14.84
2022-07-29T10:17:16.644Z,15.53
2022-07-29T10:19:44.096Z,19.94
2022-07-29T10:22:11.963Z,22.16
2022-07-29T10:24:39.770Z,22.60
2022-07-29T10:27:09.837Z,24.54
2022-07-29T10:29:37.316Z,26.08
2022-07-29T10:32:41.846Z,26.50
2022-07-29T10:35:20.419Z,26.36
2022-07-29T10:38:16.608Z,26.90
2022-07-29T10:41:21.377Z,26.08
2022-07-29T10:43:51.265Z,26.42
2022-07-29T10:46:19.547Z,27.07
2022-07-29T10:49:16.518Z,26.78
2022-07-29T10:52:17.958Z,27.27
2022-07-29T10:54:48.687Z,27.67
2022-07-29T10:57:52.475Z,27.80
2022-07-29T11:00:30.743Z,29.17
2022-07-29T11:02:59.449Z,29.97
2022-07-29T11:05:32.327Z,30.62
2022-07-29T11:08:21.103Z,31.27
2022-07-29T11:11:22.021Z,32.48
2022-07-29T11:13:55.909Z,32.59
2022-07-29T11:16:25.255Z,32.51
2022-07-29T11:19:14.686Z,32.25
2022-07-29T11:24:33.171Z,32.38
2022-07-29T11:27:21.903Z,32.49
2022-07-29T11:29:54.228Z,32.06
2022-07-29T11:32:24.190Z,31.23
2022-07-29T11:35:37.710Z,30.60
2022-07-29T11:38:28.633Z,30.88
2022-07-29T11:41:25.473Z,30.53
2022-07-29T11:43:58.301Z,31.28
2022-07-29T11:46:50.468Z,31.04
2022-07-29T11:49:35.810Z,32.11
2022-07-29T11:52:04.214Z,32.47
2022-07-29T11:54:38.835Z,32.78
2022-07-29T11:57:36.605Z,32.64
2022-07-29T12:00:12.357Z,33.33
2022-07-29T12:02:48.053Z,33.12
2022-07-29T12:05:35.955Z,32.78
2022-07-29T12:08:22.891Z,33.39
2022-07-29T12:10:52.909Z,33.75
2022-07-29T12:13:22.192Z,33.02
2022-07-29T12:16:00.101Z,32.75
2022-07-29T12:18:27.867Z,31.57
2022-07-29T12:21:06.190Z,32.45
2022-07-29T12:23:34.986Z,32.60
2022-07-29T12:26:07.541Z,32.44
2022-07-29T12:28:39.645Z,31.30
2022-07-29T12:31:08.159Z,31.53
2022-07-29T12:33:35.994Z,31.47
2022-07-29T12:36:10.454Z,30.79
2022-07-29T12:38:41.841Z,31.40
2022-07-29T12:41:08.850Z,31.66
2022-07-29T12:43:35.924Z,31.57
2022-07-29T12:46:14.657Z,31.58
2022-07-29T12:48:44.305Z,31.55
2022-07-29T12:51:15.127Z,31.11
2022-07-29T12:53:42.072Z,31.22
2022-07-29T12:59:22.533Z,30.71
2022-07-29T13:01:53.270Z,30.07
2022-07-29T13:04:31.720Z,30.36
2022-07-29T13:07:09.109Z,30.28
2022-07-29T13:09:41.590Z,30.38
2022-07-29T13:12:13.992Z,30.83
2022-07-29T13:14:51.265Z,30.71
2022-07-29T13:17:24.338Z,29.89
2022-07-29T13:19:53.628Z,29.96
2022-07-29T13:22:23.902Z,29.15
2022-07-29T13:24:59.405Z,29.47
2022-07-29T13:27:33.097Z,29.63
2022-07-29T13:30:02.604Z,28.91
2022-07-29T13:32:31.715Z,29.15
2022-07-29T13:35:04.934Z,29.33
2022-07-29T13:37:35.761Z,29.94
2022-07-29T13:40:05.041Z,29.77
2022-07-29T13:42:33.011Z,30.89
2022-07-29T13:45:01.064Z,31.03
2022-07-29T13:47:32.370Z,30.59
2022-07-29T13:50:06.199Z,30.49
2022-07-29T13:52:34.637Z,32.09
2022-07-29T13:55:02.179Z,31.42
2022-07-29T13:57:29.335Z,31.32
2022-07-29T13:59:56.899Z,31.19
2022-07-29T14:02:25.587Z,31.16
2022-07-29T14:04:54.458Z,31.39
2022-07-29T14:07:22.185Z,31.64
2022-07-29T14:09:49.047Z,31.71
2022-07-29T14:12:15.979Z,31.32
2022-07-29T14:14:43.126Z,31.04
2022-07-29T14:17:10.710Z,31.72
2022-07-29T14:19:38.848Z,31.89
2022-07-29T14:22:08.495Z,32.27
2022-07-29T14:24:37.715Z,31.73
2022-07-29T14:27:06.106Z,31.32
2022-07-29T14:29:37.401Z,30.99
2022-07-29T14:32:11.294Z,30.84
2022-07-29T14:34:39.289Z,30.13
2022-07-29T14:37:07.510Z,30.13
2022-07-29T14:39:42.127Z,29.78
2022-07-29T14:42:12.459Z,30.44
2022-07-29T14:44:42.265Z,29.69
2022-07-29T14:47:09.729Z,29.37
2022-07-29T14:49:36.835Z,29.44
2022-07-29T14:52:04.373Z,29.36
2022-07-29T14:54:31.278Z,29.13
2022-07-29T14:56:58.770Z,29.31
2022-07-29T14:59:27.189Z,29.25
2022-07-29T15:01:54.607Z,29.05
2022-07-29T15:04:21.824Z,29.08
2022-07-29T15:06:49.195Z,28.68
2022-07-29T15:09:16.151Z,28.64
2022-07-29T15:11:43.090Z,28.47
2022-07-29T15:14:10.208Z,28.16
2022-07-29T15:16:39.102Z,27.72
2022-07-29T15:19:09.705Z,28.50
2022-07-29T15:21:36.617Z,28.51
2022-07-29T15:24:15.424Z,28.46
2022-07-29T15:26:43.389Z,28.07
2022-07-29T15:29:10.390Z,28.45
2022-07-29T15:31:37.490Z,28.34
2022-07-29T15:34:06.323Z,28.60
2022-07-29T15:39:22.707Z,29.03
2022-07-29T15:41:50.490Z,29.32
2022-07-29T15:44:18.100Z,29.62
2022-07-29T15:47:03.667Z,29.13
2022-07-29T15:49:47.643Z,28.95
2022-07-29T15:52:19.058Z,28.83
2022-07-29T15:54:51.906Z,28.43
2022-07-29T15:57:18.879Z,28.68
2022-07-29T15:59:45.886Z,28.31
2022-07-29T16:02:12.801Z,28.22
2022-07-29T16:04:40.099Z,28.20
2022-07-29T16:07:07.543Z,27.94
2022-07-29T16:09:34.519Z,27.82
2022-07-29T16:12:01.394Z,28.18
2022-07-29T16:14:29.012Z,27.90
2022-07-29T16:16:56.905Z,28.26
2022-07-29T16:19:24.175Z,28.04
2022-07-29T16:21:51.085Z,27.65
2022-07-29T16:24:18.856Z,27.47
2022-07-29T16:26:45.868Z,27.53
2022-07-29T16:29:12.800Z,27.19
2022-07-29T16:31:39.750Z,27.92
2022-07-29T16:34:06.688Z,27.02
2022-07-29T16:36:33.575Z,26.94
2022-07-29T16:39:00.472Z,27.07
2022-07-29T16:41:27.819Z,26.48
2022-07-29T16:43:55.269Z,26.71
2022-07-29T16:46:22.251Z,27.23
2022-07-29T16:48:51.390Z,26.91
2022-07-29T16:51:18.319Z,26.92
2022-07-29T16:53:45.564Z,27.35
2022-07-29T16:56:15.886Z,26.94
2022-07-29T16:58:44.038Z,26.96
2022-07-29T17:01:11.848Z,26.86
2022-07-29T17:04:00.496Z,27.00
2022-07-29T17:06:29.566Z,27.54
2022-07-29T17:08:56.992Z,28.39
2022-07-29T17:11:53.270Z,29.61
2022-07-29T17:14:11.109Z,31.93
2022-07-29T17:16:38.093Z,33.93
2022-07-29T17:19:05.433Z,34.59
2022-07-29T17:21:32.338Z,35.49
2022-07-29T17:23:59.418Z,36.00
2022-07-29T17:26:28.121Z,36.57
2022-07-29T17:28:55.883Z,37.42
2022-07-29T17:31:23.392Z,36.52
2022-07-29T17:33:50.525Z,37.21
2022-07-29T17:36:23.674Z,37.46
2022-07-29T17:38:52.836Z,37.74
2022-07-29T17:41:21.113Z,37.98
2022-07-29T17:43:49.500Z,38.27
2022-07-29T17:46:18.118Z,38.33
2022-07-29T17:48:45.342Z,38.13
2022-07-29T17:51:12.702Z,39.76
2022-07-29T17:53:40.103Z,39.79
2022-07-29T17:56:08.107Z,41.73
2022-07-29T17:58:36.275Z,42.36
2022-07-29T18:01:03.871Z,42.04
2022-07-29T18:03:30.907Z,42.42
2022-07-29T18:05:58.066Z,42.88
2022-07-29T18:08:28.209Z,42.14
2022-07-29T18:10:55.802Z,41.79
2022-07-29T18:13:22.801Z,42.28
2022-07-29T18:15:49.872Z,42.30
2022-07-29T18:18:18.300Z,44.05
2022-07-29T18:20:46.199Z,44.25
2022-07-29T18:23:13.879Z,44.62
2022-07-29T18:25:41.121Z,45.38
2022-07-29T18:28:08.032Z,47.52
2022-07-29T18:30:37.714Z,46.66
2022-07-29T18:33:20.709Z,47.99
2022-07-29T18:35:51.816Z,49.25
2022-07-29T18:38:19.337Z,49.88
2022-07-29T18:40:46.316Z,50.22
2022-07-29T18:43:13.807Z,50.76
2022-07-29T18:45:40.776Z,50.70
2022-07-29T18:48:12.785Z,52.61
2022-07-29T18:50:40.913Z,53.84
2022-07-29T18:53:08.198Z,53.82
2022-07-29T18:55:35.168Z,54.06
2022-07-29T18:58:02.204Z,54.00
2022-07-29T19:00:30.481Z,53.81
2022-07-29T19:02:57.562Z,54.31
2022-07-29T19:05:24.810Z,54.85
2022-07-29T19:07:51.707Z,54.10
2022-07-29T19:10:18.751Z,55.18
2022-07-29T19:12:45.656Z,54.61
2022-07-29T19:15:12.881Z,54.82
2022-07-29T19:17:48.508Z,55.30
2022-07-29T19:20:15.829Z,54.80
2022-07-29T19:22:42.787Z,54.45
2022-07-29T19:25:10.135Z,54.11
2022-07-29T19:27:37.205Z,53.86
2022-07-29T19:30:06.937Z,53.80
2022-07-29T19:32:33.913Z,53.51
2022-07-29T19:35:19.227Z,53.75
2022-07-29T19:37:46.102Z,53.75
2022-07-29T19:40:13.149Z,54.11
2022-07-29T19:42:40.057Z,53.47
2022-07-29T19:45:07.515Z,53.49
2022-07-29T19:47:34.974Z,53.27
2022-07-29T19:50:02.307Z,53.28
2022-07-29T19:52:29.246Z,52.81
2022-07-29T19:54:56.132Z,52.43
2022-07-29T19:57:23.121Z,52.58
2022-07-29T19:59:51.160Z,53.19
2022-07-29T20:02:18.242Z,53.13
2022-07-29T20:04:45.472Z,52.68
2022-07-29T20:07:13.501Z,52.49
2022-07-29T20:09:41.542Z,52.12
2022-07-29T20:12:09.669Z,51.92
2022-07-29T20:14:36.874Z,52.68
2022-07-29T20:17:05.126Z,51.71
2022-07-29T20:19:32.878Z,51.60
2022-07-29T20:22:00.190Z,52.47
2022-07-29T20:24:28.363Z,52.17
2022-07-29T20:26:55.290Z,52.60
2022-07-29T20:29:22.550Z,52.13
2022-07-29T20:31:52.250Z,52.42
2022-07-29T20:34:23.649Z,52.44
2022-07-29T20:36:50.511Z,52.09
2022-07-29T20:39:17.423Z,51.45
2022-07-29T20:41:44.434Z,52.67
2022-07-29T20:44:11.324Z,52.80
2022-07-29T20:46:39.325Z,52.88
2022-07-29T20:49:07.052Z,52.73
2022-07-29T20:51:43.602Z,53.15
2022-07-29T20:54:11.768Z,52.70
2022-07-29T20:56:39.559Z,52.21
2022-07-29T20:59:06.499Z,52.85
2022-07-29T21:01:33.648Z,53.05
2022-07-29T21:04:01.717Z,53.43
2022-07-29T21:06:29.401Z,53.00
2022-07-29T21:08:57.907Z,53.65
2022-07-29T21:11:43.219Z,53.11
2022-07-29T21:14:41.176Z,53.75
2022-07-29T21:17:08.225Z,53.17
2022-07-29T21:19:35.619Z,53.11
2022-07-29T21:22:03.191Z,53.50
2022-07-29T21:24:30.078Z,53.50
2022-07-29T21:27:21.512Z,53.64
2022-07-29T21:29:49.025Z,53.66
2022-07-29T21:32:27.478Z,53.21
2022-07-29T21:34:57.814Z,53.12
2022-07-29T21:37:24.766Z,53.77
2022-07-29T21:39:51.779Z,53.98
2022-07-29T21:42:18.666Z,53.58
2022-07-29T21:44:45.606Z,53.79
2022-07-29T21:47:12.810Z,54.40
2022-07-29T21:49:40.094Z,54.39
2022-07-29T21:52:08.144Z,54.42
2022-07-29T21:54:36.296Z,53.98
2022-07-29T21:57:03.922Z,54.29
2022-07-29T21:59:31.879Z,54.25
2022-07-29T22:02:02.665Z,54.43
2022-07-29T22:04:31.130Z,54.05
2022-07-29T22:06:58.805Z,54.46
2022-07-29T22:09:26.857Z,54.85
2022-07-29T22:11:54.564Z,54.24
2022-07-29T22:14:22.202Z,54.30
2022-07-29T22:16:49.350Z,54.04
2022-07-29T22:19:16.454Z,54.02
2022-07-29T22:21:43.495Z,53.85
2022-07-29T22:24:11.149Z,54.01
2022-07-29T22:26:38.515Z,54.27
2022-07-29T22:29:06.407Z,54.26
2022-07-29T22:31:33.355Z,54.28
2022-07-29T22:34:00.390Z,54.19
2022-07-29T22:36:27.429Z,54.23
2022-07-29T22:38:54.429Z,54.51
2022-07-29T22:41:21.376Z,54.52
2022-07-29T22:43:48.244Z,54.26
2022-07-29T22:46:15.426Z,54.57
2022-07-29T22:48:42.411Z,54.66
2022-07-29T22:51:09.342Z,54.02
2022-07-29T22:53:37.120Z,54.27
2022-07-29T22:56:04.373Z,54.08
2022-07-29T22:58:31.448Z,54.11
2022-07-29T23:00:58.561Z,53.98
2022-07-29T23:03:25.600Z,53.91
2022-07-29T23:05:52.588Z,54.44
2022-07-29T23:08:20.094Z,54.25
2022-07-29T23:10:47.545Z,54.13
2022-07-29T23:13:14.631Z,54.06
2022-07-29T23:15:41.780Z,54.05
2022-07-29T23:18:09.185Z,53.85
2022-07-29T23:20:36.568Z,53.99
2022-07-29T23:23:03.633Z,54.30
2022-07-29T23:25:30.525Z,54.53
2022-07-29T23:27:57.555Z,54.35
2022-07-29T23:30:24.697Z,54.12
2022-07-29T23:32:51.692Z,54.27
2022-07-29T23:35:18.730Z,54.49
2022-07-29T23:37:45.666Z,54.41
2022-07-29T23:40:14.651Z,54.57
2022-07-29T23:42:43.174Z,54.84
2022-07-29T23:45:12.016Z,54.95
2022-07-29T23:47:39.512Z,55.25
2022-07-29T23:50:08.638Z,55.38
2022-07-29T23:55:36.501Z,55.03
2022-07-29T23:57:50.746Z,54.66
